Stoneville, South Dakota
Current Conditions -  °F | °C
As of 11:04 AM on Wednesday 26 Nov 2014 (Local Time) from KRCA Reporting Station
Overcast Overcast  
Wind Chill: -7°   Ceiling: 1800
Heat Index: -2°   Visibility: 10mi
Dew Point: -5°   Wind: 9mph
Humidity: 80%   Direction: 210°SSW
Pressure: 30.23"   Gusts: NA
Location:  44.653°N, 102.847°W
Report Text: KRCA 261804Z AUTO 21008KT 10SM OVC018 M02/M05 A3023 RMK AO2
Loading
Personal Weather Stations






























Interactive Weather Map New forecast layout! Learn more

10-Day Weather Forecast

Advertisements
Track Severe Weather on mobile